createdAt,value
2023-03-05T00:01:33.212Z,17.33
2023-03-05T00:04:03.077Z,18.00
2023-03-05T00:06:32.875Z,17.75
2023-03-05T00:09:01.983Z,14.67
2023-03-05T00:11:31.916Z,16.33
2023-03-05T00:14:03.817Z,16.67
2023-03-05T00:16:34.581Z,21.33
2023-03-05T00:19:02.845Z,21.75
2023-03-05T00:21:39.821Z,16.00
2023-03-05T00:24:18.954Z,21.00
2023-03-05T00:26:47.331Z,17.33
2023-03-05T00:29:24.620Z,17.00
2023-03-05T00:31:53.104Z,15.33
2023-03-05T00:34:21.593Z,21.67
2023-03-05T00:36:52.313Z,17.25
2023-03-05T00:39:21.723Z,18.50
2023-03-05T00:41:50.508Z,19.67
2023-03-05T00:44:19.104Z,16.00
2023-03-05T00:46:47.981Z,25.00
2023-03-05T00:49:16.476Z,21.00
2023-03-05T00:51:44.861Z,19.00
2023-03-05T00:54:13.226Z,20.33
2023-03-05T00:56:41.707Z,17.00
2023-03-05T00:59:10.422Z,16.00
2023-03-05T01:01:38.806Z,14.00
2023-03-05T01:04:07.246Z,16.75
2023-03-05T01:06:35.637Z,14.00
2023-03-05T01:09:04.057Z,22.00
2023-03-05T01:11:32.581Z,14.00
2023-03-05T01:14:00.980Z,17.25
2023-03-05T01:16:29.387Z,17.00
2023-03-05T01:18:58.022Z,19.25
2023-03-05T01:21:26.415Z,16.00
2023-03-05T01:23:55.087Z,16.67
2023-03-05T01:26:23.460Z,19.33
2023-03-05T01:28:51.851Z,18.50
2023-03-05T01:31:20.755Z,14.67
2023-03-05T01:33:49.008Z,19.67
2023-03-05T01:36:17.396Z,14.50
2023-03-05T01:38:47.734Z,16.00
2023-03-05T01:41:17.733Z,21.33
2023-03-05T01:43:47.805Z,18.50
2023-03-05T01:46:46.550Z,14.67
2023-03-05T01:49:28.235Z,19.75
2023-03-05T01:52:05.519Z,15.00
2023-03-05T01:54:44.000Z,17.25
2023-03-05T01:57:18.564Z,17.00
2023-03-05T01:59:50.069Z,18.50
2023-03-05T02:02:19.946Z,17.50
2023-03-05T02:05:09.534Z,20.33
2023-03-05T02:07:40.448Z,17.33
2023-03-05T02:10:20.698Z,18.50
2023-03-05T02:12:50.103Z,18.67
2023-03-05T02:15:19.046Z,15.67
2023-03-05T02:17:47.379Z,19.00
2023-03-05T02:20:19.536Z,17.50
2023-03-05T02:22:47.957Z,17.25
2023-03-05T02:25:17.589Z,15.00
2023-03-05T02:28:17.459Z,16.00
2023-03-05T02:30:46.759Z,15.00
2023-03-05T02:33:15.951Z,26.33
2023-03-05T02:35:46.554Z,17.67
2023-03-05T02:38:16.655Z,17.33
2023-03-05T02:40:45.188Z,17.00
2023-03-05T02:43:13.466Z,16.67
2023-03-05T02:45:42.120Z,22.67
2023-03-05T02:48:10.738Z,16.50
2023-03-05T02:50:40.054Z,17.00
2023-03-05T02:53:08.412Z,15.00
2023-03-05T02:55:36.791Z,19.00
2023-03-05T02:58:05.321Z,15.00
2023-03-05T03:00:34.067Z,20.00
2023-03-05T03:03:02.388Z,14.00
2023-03-05T03:05:30.927Z,16.67
2023-03-05T03:07:59.614Z,15.25
2023-03-05T03:10:27.990Z,15.67
2023-03-05T03:12:56.371Z,17.00
2023-03-05T03:15:25.059Z,22.33
2023-03-05T03:17:53.232Z,15.25
2023-03-05T03:20:21.941Z,16.50
2023-03-05T03:22:50.769Z,19.75
2023-03-05T03:25:21.858Z,11.33
2023-03-05T03:27:50.543Z,22.00
2023-03-05T03:30:19.433Z,16.00
2023-03-05T03:32:47.819Z,15.50
2023-03-05T03:35:16.094Z,15.00
2023-03-05T03:37:44.485Z,12.50
2023-03-05T03:40:13.395Z,15.25
2023-03-05T03:42:41.642Z,15.67
2023-03-05T03:45:10.444Z,18.25
2023-03-05T03:47:38.911Z,17.50
2023-03-05T03:50:07.902Z,16.00
2023-03-05T03:52:36.382Z,18.00
2023-03-05T03:55:05.277Z,20.50
2023-03-05T03:57:36.633Z,14.50
2023-03-05T04:00:07.262Z,15.75
2023-03-05T04:02:35.542Z,12.33
2023-03-05T04:05:04.563Z,17.00
2023-03-05T04:07:32.911Z,13.00
2023-03-05T04:10:01.203Z,12.75
2023-03-05T04:12:29.566Z,17.33
2023-03-05T04:14:57.849Z,14.33
2023-03-05T04:17:26.217Z,15.75
2023-03-05T04:19:54.601Z,16.00
2023-03-05T04:22:23.084Z,17.50
2023-03-05T04:24:51.463Z,17.25
2023-03-05T04:27:19.873Z,12.33
2023-03-05T04:29:48.322Z,17.33
2023-03-05T04:32:23.417Z,15.75
2023-03-05T04:34:52.152Z,16.67
2023-03-05T04:37:20.530Z,13.00
2023-03-05T04:39:48.940Z,15.00
2023-03-05T04:42:18.506Z,12.75
2023-03-05T04:44:48.913Z,15.00
2023-03-05T04:47:18.052Z,10.33
2023-03-05T04:49:46.418Z,14.67
2023-03-05T04:52:15.401Z,18.67
2023-03-05T04:54:45.222Z,15.00
2023-03-05T04:57:13.906Z,15.50
2023-03-05T04:59:42.178Z,20.00
2023-03-05T05:02:10.571Z,14.00
2023-03-05T05:04:39.073Z,13.00
2023-03-05T05:07:08.036Z,14.67
2023-03-05T05:09:36.411Z,15.50
2023-03-05T05:12:05.381Z,14.00
2023-03-05T05:14:34.922Z,17.00
2023-03-05T05:17:06.571Z,13.00
2023-03-05T05:19:35.712Z,16.00
2023-03-05T05:22:03.967Z,13.75
2023-03-05T05:24:32.319Z,12.75
2023-03-05T05:27:00.802Z,11.00
2023-03-05T05:29:29.183Z,14.00
2023-03-05T05:31:57.626Z,17.33
2023-03-05T05:34:26.041Z,17.50
2023-03-05T05:36:54.426Z,17.25
2023-03-05T05:39:22.801Z,18.67
2023-03-05T05:41:52.773Z,9.33
2023-03-05T05:44:21.010Z,14.00
2023-03-05T05:46:49.409Z,20.75
2023-03-05T05:49:18.065Z,20.50
2023-03-05T05:51:46.445Z,21.25
2023-03-05T05:54:15.969Z,16.00
2023-03-05T05:56:44.235Z,18.25
2023-03-05T05:59:12.708Z,13.00
2023-03-05T06:01:41.224Z,20.67
2023-03-05T06:04:09.778Z,14.33
2023-03-05T06:06:38.162Z,18.00
2023-03-05T06:09:06.740Z,22.33
2023-03-05T06:11:35.635Z,19.67
2023-03-05T06:14:04.118Z,17.67
2023-03-05T06:16:32.660Z,13.00
2023-03-05T06:19:04.815Z,15.75
2023-03-05T06:21:33.753Z,13.00
2023-03-05T06:24:02.139Z,18.00
2023-03-05T06:26:30.552Z,13.33
2023-03-05T06:28:59.533Z,19.00
2023-03-05T06:31:28.980Z,15.50
2023-03-05T06:34:01.492Z,17.00
2023-03-05T06:36:30.516Z,19.50
2023-03-05T06:38:59.072Z,12.00
2023-03-05T06:41:30.015Z,23.33
2023-03-05T06:44:00.538Z,17.33
2023-03-05T06:46:31.415Z,18.33
2023-03-05T06:49:01.488Z,15.00
2023-03-05T06:51:35.699Z,17.00
2023-03-05T06:54:09.776Z,16.33
2023-03-05T06:56:39.946Z,17.33
2023-03-05T06:59:08.831Z,17.50
2023-03-05T07:01:37.317Z,18.00
2023-03-05T07:04:07.079Z,18.00
2023-03-05T07:06:38.585Z,17.00
2023-03-05T07:09:08.678Z,18.00
2023-03-05T07:11:37.179Z,18.67
2023-03-05T07:14:05.706Z,16.50
2023-03-05T07:16:34.959Z,13.00
2023-03-05T07:19:06.780Z,18.25
2023-03-05T07:21:37.534Z,16.50
2023-03-05T07:24:08.802Z,18.00
2023-03-05T07:26:37.212Z,22.25
2023-03-05T07:29:05.671Z,26.50
2023-03-05T07:31:34.298Z,33.00
2023-03-05T07:34:03.771Z,29.75
2023-03-05T07:36:32.272Z,30.50
2023-03-05T07:39:00.946Z,22.00
2023-03-05T07:41:29.218Z,26.00
2023-03-05T07:43:57.711Z,27.00
2023-03-05T07:46:29.582Z,17.25
2023-03-05T07:48:58.485Z,24.00
2023-03-05T07:51:27.759Z,23.33
2023-03-05T07:53:57.859Z,19.33
2023-03-05T07:56:32.265Z,20.50
2023-03-05T07:59:01.894Z,18.00
2023-03-05T08:01:31.431Z,19.33
2023-03-05T08:03:59.855Z,21.00
2023-03-05T08:06:28.868Z,20.00
2023-03-05T08:08:58.181Z,22.00
2023-03-05T08:11:28.813Z,20.00
2023-03-05T08:13:59.749Z,21.00
2023-03-05T08:16:29.575Z,22.75
2023-03-05T08:18:58.978Z,20.50
2023-03-05T08:21:46.687Z,17.67
2023-03-05T08:24:14.965Z,21.00
2023-03-05T08:26:43.963Z,21.25
2023-03-05T08:29:12.347Z,25.00
2023-03-05T08:31:45.942Z,19.00
2023-03-05T08:34:14.529Z,21.25
2023-03-05T08:36:42.812Z,26.00
2023-03-05T08:39:11.146Z,22.67
2023-03-05T08:41:39.409Z,16.50
2023-03-05T08:44:07.725Z,22.25
2023-03-05T08:46:36.034Z,19.75
2023-03-05T08:49:04.259Z,19.67
2023-03-05T08:51:32.353Z,20.00
2023-03-05T08:54:01.926Z,23.00
2023-03-05T08:56:31.643Z,18.00
2023-03-05T08:58:59.813Z,20.00
2023-03-05T09:01:28.327Z,14.00
2023-03-05T09:03:57.559Z,14.00
2023-03-05T09:06:26.482Z,22.75
2023-03-05T09:08:54.977Z,25.00
2023-03-05T09:11:23.354Z,28.50
2023-03-05T09:13:51.653Z,25.00
2023-03-05T09:16:20.317Z,22.25
2023-03-05T09:18:48.597Z,26.67
2023-03-05T09:21:17.983Z,25.67
2023-03-05T09:23:47.435Z,20.50
2023-03-05T09:26:19.496Z,19.75
2023-03-05T09:28:48.414Z,21.67
2023-03-05T09:31:17.188Z,19.25
2023-03-05T09:33:45.568Z,19.67
2023-03-05T09:36:43.057Z,22.75
2023-03-05T09:39:11.145Z,22.75
2023-03-05T09:42:08.724Z,24.33
2023-03-05T09:45:04.303Z,22.75
2023-03-05T09:48:05.078Z,15.00
2023-03-05T09:50:44.960Z,18.50
2023-03-05T09:53:13.156Z,21.33
2023-03-05T09:55:46.981Z,17.00
2023-03-05T09:58:39.929Z,23.50
2023-03-05T10:01:15.207Z,18.50
2023-03-05T10:04:02.247Z,22.50
2023-03-05T10:06:32.994Z,18.33
2023-03-05T10:09:10.140Z,25.33
2023-03-05T10:12:21.095Z,21.00
2023-03-05T10:14:49.633Z,18.25
2023-03-05T10:17:29.634Z,19.00
2023-03-05T10:20:06.382Z,16.33
2023-03-05T10:22:50.197Z,18.67
2023-03-05T10:25:19.381Z,14.00
2023-03-05T10:27:59.656Z,16.00
2023-03-05T10:30:55.453Z,15.25
2023-03-05T10:33:42.307Z,16.50
2023-03-05T10:36:19.476Z,15.25
2023-03-05T10:39:05.801Z,15.25
2023-03-05T10:42:02.606Z,20.00
2023-03-05T10:44:41.803Z,17.00
2023-03-05T10:47:23.166Z,18.75
2023-03-05T10:49:56.112Z,17.25
2023-03-05T10:52:33.314Z,17.25
2023-03-05T10:55:01.958Z,12.00
2023-03-05T10:57:32.294Z,19.25
2023-03-05T11:00:08.778Z,16.50
2023-03-05T11:02:55.306Z,16.75
2023-03-05T11:05:38.509Z,12.00
2023-03-05T11:08:36.024Z,16.00
2023-03-05T11:11:10.149Z,16.00
2023-03-05T11:13:55.732Z,18.00
2023-03-05T11:16:47.864Z,14.50
2023-03-05T11:19:20.291Z,15.25
2023-03-05T11:22:05.672Z,9.25
2023-03-05T11:24:34.113Z,16.75
2023-03-05T11:27:02.376Z,18.33
2023-03-05T11:29:32.838Z,17.25
2023-03-05T11:32:24.389Z,20.67
2023-03-05T11:34:53.777Z,16.25
2023-03-05T11:37:31.503Z,17.25
2023-03-05T11:40:17.117Z,13.50
2023-03-05T11:42:45.490Z,19.25
2023-03-05T11:45:18.840Z,18.50
2023-03-05T11:47:52.145Z,18.33
2023-03-05T11:50:20.473Z,17.00
2023-03-05T11:52:53.356Z,22.50
2023-03-05T11:55:22.636Z,18.00
2023-03-05T11:57:57.744Z,18.50
2023-03-05T12:00:29.728Z,15.50
2023-03-05T12:03:00.126Z,16.25
2023-03-05T12:05:29.147Z,17.25
2023-03-05T12:08:00.129Z,18.00
2023-03-05T12:10:28.670Z,16.75
2023-03-05T12:13:36.903Z,19.25
2023-03-05T12:16:14.862Z,15.75
2023-03-05T12:18:51.971Z,14.50
2023-03-05T12:21:33.557Z,22.67
2023-03-05T12:24:03.382Z,20.33
2023-03-05T12:26:56.441Z,22.00
2023-03-05T12:29:39.575Z,17.00
2023-03-05T12:32:23.315Z,13.75
2023-03-05T12:35:06.860Z,15.00
2023-03-05T12:37:35.057Z,12.67
2023-03-05T12:40:08.211Z,15.75
2023-03-05T12:42:39.389Z,13.00
2023-03-05T12:45:10.377Z,16.50
2023-03-05T12:47:40.601Z,12.25
2023-03-05T12:50:27.241Z,14.75
2023-03-05T12:53:09.332Z,15.75
2023-03-05T12:55:59.492Z,12.75
2023-03-05T12:58:42.235Z,11.25
2023-03-05T13:01:42.825Z,10.25
2023-03-05T13:04:21.478Z,15.00
2023-03-05T13:06:59.502Z,13.00
2023-03-05T13:09:31.667Z,14.50
2023-03-05T13:12:00.452Z,18.00
2023-03-05T13:14:44.838Z,11.50
2023-03-05T13:17:29.501Z,11.00
2023-03-05T13:19:58.878Z,10.50
2023-03-05T13:22:28.342Z,15.75
2023-03-05T13:25:17.429Z,16.25
2023-03-05T13:27:45.552Z,15.25
2023-03-05T13:30:24.841Z,13.50
2023-03-05T13:32:56.377Z,13.75
2023-03-05T13:35:24.713Z,15.75
2023-03-05T13:37:52.970Z,12.75
2023-03-05T13:40:30.368Z,14.75
2023-03-05T13:43:19.918Z,16.67
2023-03-05T13:45:55.150Z,12.50
2023-03-05T13:48:23.294Z,21.00
2023-03-05T13:50:57.470Z,16.25
2023-03-05T13:53:28.615Z,13.00
2023-03-05T13:56:08.410Z,16.00
2023-03-05T13:58:52.822Z,15.67
2023-03-05T14:01:38.515Z,19.25
2023-03-05T14:04:19.900Z,14.00
2023-03-05T14:07:06.497Z,13.00
2023-03-05T14:09:37.653Z,15.67
2023-03-05T14:12:06.536Z,14.25
2023-03-05T14:14:37.636Z,12.50
2023-03-05T14:17:28.099Z,17.67
2023-03-05T14:20:25.442Z,17.25
2023-03-05T14:23:01.381Z,18.00
2023-03-05T14:25:38.954Z,15.50
2023-03-05T14:28:28.410Z,14.25
2023-03-05T14:30:57.456Z,17.67
2023-03-05T14:33:29.989Z,14.50
2023-03-05T14:36:00.599Z,13.00
2023-03-05T14:38:31.589Z,12.00
2023-03-05T14:41:22.683Z,12.50
2023-03-05T14:43:50.948Z,15.50
2023-03-05T14:46:19.300Z,20.00
2023-03-05T14:48:48.099Z,27.33
2023-03-05T14:51:16.298Z,24.00
2023-03-05T14:53:47.583Z,31.50
2023-03-05T14:56:27.242Z,27.50
2023-03-05T14:58:57.583Z,34.00
2023-03-05T15:01:26.233Z,34.75
2023-03-05T15:03:54.383Z,21.33
2023-03-05T15:06:33.961Z,19.50
2023-03-05T15:09:02.362Z,21.00
2023-03-05T15:11:31.094Z,19.75
2023-03-05T15:13:59.295Z,20.00
2023-03-05T15:16:27.494Z,17.25
2023-03-05T15:18:55.687Z,18.00
2023-03-05T15:21:23.835Z,24.67
2023-03-05T15:23:51.956Z,19.00
2023-03-05T15:26:21.880Z,24.00
2023-03-05T15:28:50.092Z,18.50
2023-03-05T15:31:18.673Z,25.50
2023-03-05T15:33:46.927Z,25.25
2023-03-05T15:36:15.041Z,18.00
2023-03-05T15:38:43.336Z,18.50
2023-03-05T15:41:11.477Z,24.00
2023-03-05T15:43:39.607Z,17.33
2023-03-05T15:46:07.800Z,12.25
2023-03-05T15:48:36.054Z,18.75
2023-03-05T15:51:07.452Z,17.00
2023-03-05T15:53:35.624Z,18.75
2023-03-05T15:56:04.250Z,19.25
2023-03-05T15:58:32.436Z,20.33
2023-03-05T16:01:00.714Z,22.67
2023-03-05T16:03:28.968Z,24.25
2023-03-05T16:05:57.126Z,37.75
2023-03-05T16:08:25.505Z,22.00
2023-03-05T16:10:53.666Z,19.00
2023-03-05T16:13:21.880Z,20.67
2023-03-05T16:15:53.242Z,16.50
2023-03-05T16:18:22.119Z,19.75
2023-03-05T16:20:50.504Z,17.50
2023-03-05T16:23:19.260Z,17.00
2023-03-05T16:25:47.491Z,24.75
2023-03-05T16:28:15.740Z,23.00
2023-03-05T16:30:44.102Z,19.75
2023-03-05T16:33:12.242Z,19.50
2023-03-05T16:35:40.433Z,15.75
2023-03-05T16:38:08.767Z,18.50
2023-03-05T16:41:05.964Z,21.33
2023-03-05T16:43:26.483Z,20.00
2023-03-05T16:45:54.836Z,20.00
2023-03-05T16:48:23.160Z,17.33
2023-03-05T16:50:51.440Z,14.00
2023-03-05T16:53:20.437Z,16.67
2023-03-05T16:55:48.620Z,20.00
2023-03-05T16:58:16.836Z,21.50
2023-03-05T17:00:44.957Z,15.50
2023-03-05T17:03:13.141Z,15.00
2023-03-05T17:05:41.297Z,18.00
2023-03-05T17:08:09.486Z,20.25
2023-03-05T17:10:37.722Z,20.75
2023-03-05T17:13:05.886Z,19.50
2023-03-05T17:15:34.227Z,19.00
2023-03-05T17:18:02.513Z,22.00
2023-03-05T17:20:30.909Z,19.50
2023-03-05T17:22:59.171Z,27.00
2023-03-05T17:25:27.337Z,25.50
2023-03-05T17:27:55.475Z,27.00
2023-03-05T17:30:23.843Z,30.00
2023-03-05T17:32:54.020Z,26.50
2023-03-05T17:35:22.675Z,26.00
2023-03-05T17:37:51.840Z,28.25
2023-03-05T17:40:20.056Z,14.75
2023-03-05T17:42:48.244Z,30.67
2023-03-05T17:45:17.325Z,28.00
2023-03-05T17:47:45.501Z,26.75
2023-03-05T17:50:15.065Z,28.00
2023-03-05T17:52:43.278Z,26.75
2023-03-05T17:55:14.049Z,24.25
2023-03-05T17:57:43.552Z,26.75
2023-03-05T18:00:20.830Z,64.00
2023-03-05T18:02:49.731Z,78.00
2023-03-05T18:05:19.229Z,50.67
2023-03-05T18:07:47.845Z,56.00
2023-03-05T18:10:16.821Z,61.00
2023-03-05T18:12:45.247Z,55.33
2023-03-05T18:15:15.363Z,52.00
2023-03-05T18:17:43.619Z,55.00
2023-03-05T18:20:36.486Z,50.00
2023-03-05T18:23:05.809Z,54.67
2023-03-05T18:25:34.268Z,38.00
2023-03-05T18:28:05.244Z,47.50
2023-03-05T18:30:34.164Z,50.00
2023-03-05T18:33:02.871Z,49.00
2023-03-05T18:35:32.371Z,53.00
2023-03-05T18:38:00.862Z,34.00
2023-03-05T18:40:30.380Z,48.00
2023-03-05T18:43:02.511Z,45.33
2023-03-05T18:45:31.223Z,45.67
2023-03-05T18:47:59.337Z,47.67
2023-03-05T18:50:28.582Z,47.00
2023-03-05T18:52:57.160Z,49.00
2023-03-05T18:55:28.423Z,40.00
2023-03-05T18:57:56.864Z,40.00
2023-03-05T19:00:30.285Z,46.33
2023-03-05T19:02:59.441Z,35.00
2023-03-05T19:05:27.612Z,38.67
2023-03-05T19:07:56.417Z,45.67
2023-03-05T19:10:24.725Z,45.50
2023-03-05T19:13:43.702Z,40.67
2023-03-05T19:16:17.096Z,45.00
2023-03-05T19:19:16.903Z,48.00
2023-03-05T19:22:03.336Z,36.50
2023-03-05T19:24:32.683Z,43.50
2023-03-05T19:27:01.633Z,37.50
2023-03-05T19:29:33.188Z,37.67
2023-03-05T19:32:01.549Z,39.67
2023-03-05T19:34:30.282Z,28.00
2023-03-05T19:36:58.884Z,32.33
2023-03-05T19:39:27.093Z,35.67
2023-03-05T19:41:55.703Z,36.00
2023-03-05T19:44:24.152Z,39.00
2023-03-05T19:46:52.391Z,30.33
2023-03-05T19:49:21.032Z,32.50
2023-03-05T19:51:50.105Z,34.33
2023-03-05T19:54:20.233Z,26.25
2023-03-05T19:56:49.365Z,32.00
2023-03-05T19:59:18.840Z,35.67
2023-03-05T20:01:47.368Z,32.00
2023-03-05T20:04:19.329Z,29.67
2023-03-05T20:06:47.578Z,28.25
2023-03-05T20:09:16.461Z,29.00
2023-03-05T20:11:45.025Z,31.33
2023-03-05T20:14:14.774Z,30.25
2023-03-05T20:16:43.559Z,31.00
2023-03-05T20:19:17.050Z,27.00
2023-03-05T20:21:45.998Z,29.50
2023-03-05T20:24:16.630Z,29.67
2023-03-05T20:26:46.188Z,30.00
2023-03-05T20:29:17.639Z,22.50
2023-03-05T20:31:47.173Z,26.75
2023-03-05T20:34:17.623Z,28.00
2023-03-05T20:36:46.717Z,27.00
2023-03-05T20:39:15.034Z,25.00
2023-03-05T20:41:43.088Z,26.00
2023-03-05T20:44:11.604Z,26.75
2023-03-05T20:47:34.612Z,30.25
2023-03-05T20:50:02.883Z,26.00
2023-03-05T20:52:31.100Z,19.00
2023-03-05T20:54:59.501Z,21.50
2023-03-05T20:57:27.702Z,21.75
2023-03-05T20:59:55.853Z,25.25
2023-03-05T21:02:24.000Z,20.25
2023-03-05T21:04:52.537Z,23.25
2023-03-05T21:07:21.614Z,22.00
2023-03-05T21:09:49.960Z,18.00
2023-03-05T21:12:18.154Z,24.00
2023-03-05T21:14:46.331Z,21.33
2023-03-05T21:17:14.520Z,27.33
2023-03-05T21:19:42.614Z,20.00
2023-03-05T21:22:10.806Z,22.50
2023-03-05T21:25:21.262Z,16.75
2023-03-05T21:27:54.510Z,23.67
2023-03-05T21:30:23.408Z,19.50
2023-03-05T21:32:51.681Z,21.50
2023-03-05T21:35:21.867Z,18.75
2023-03-05T21:37:50.112Z,16.00
2023-03-05T21:40:19.197Z,20.75
2023-03-05T21:42:48.088Z,22.00
2023-03-05T21:45:19.385Z,21.75
2023-03-05T21:47:48.522Z,16.67
2023-03-05T21:50:16.953Z,19.50
2023-03-05T21:52:45.084Z,20.75
2023-03-05T21:55:16.267Z,21.33
2023-03-05T21:57:44.909Z,15.50
2023-03-05T22:00:13.960Z,20.00
2023-03-05T22:02:42.447Z,18.33
2023-03-05T22:05:13.485Z,20.00
2023-03-05T22:07:42.555Z,20.00
2023-03-05T22:10:16.175Z,20.75
2023-03-05T22:13:10.507Z,23.00
2023-03-05T22:15:42.710Z,18.00
2023-03-05T22:18:11.455Z,21.25
2023-03-05T22:20:40.260Z,21.50
2023-03-05T22:23:08.541Z,17.00
2023-03-05T22:25:37.540Z,16.50
2023-03-05T22:28:06.149Z,15.50
2023-03-05T22:30:34.358Z,18.33
2023-03-05T22:33:02.710Z,13.33
2023-03-05T22:35:30.844Z,19.50
2023-03-05T22:37:59.498Z,18.67
2023-03-05T22:40:28.037Z,16.50
2023-03-05T22:42:56.557Z,20.00
2023-03-05T22:45:25.226Z,23.00
2023-03-05T22:47:57.049Z,16.00
2023-03-05T22:50:25.821Z,14.67
2023-03-05T22:52:54.989Z,19.50
2023-03-05T22:55:24.132Z,14.00
2023-03-05T22:57:52.871Z,21.00
2023-03-05T23:00:27.073Z,16.67
2023-03-05T23:02:55.925Z,19.75
2023-03-05T23:05:24.586Z,17.25
2023-03-05T23:07:53.394Z,19.50
2023-03-05T23:10:26.918Z,17.25
2023-03-05T23:12:58.309Z,16.25
2023-03-05T23:15:32.963Z,15.67
2023-03-05T23:18:01.797Z,15.50
2023-03-05T23:20:35.618Z,14.75
2023-03-05T23:23:04.928Z,14.50
2023-03-05T23:25:35.553Z,17.50
2023-03-05T23:28:04.627Z,18.00
2023-03-05T23:30:35.188Z,13.67
2023-03-05T23:33:11.977Z,16.25
2023-03-05T23:35:43.632Z,13.25
2023-03-05T23:38:13.500Z,16.67
2023-03-05T23:40:48.569Z,14.25
2023-03-05T23:43:18.318Z,16.33
2023-03-05T23:45:48.944Z,21.75
2023-03-05T23:48:17.943Z,15.75
2023-03-05T23:50:48.040Z,12.00
2023-03-05T23:53:20.085Z,12.50
2023-03-05T23:55:48.875Z,20.50
2023-03-05T23:58:20.626Z,15.00
